sensor_id;sensor_type;location;lat;lon;timestamp;temperature;humidity
3262;DHT22;1643;47.746;9.000;2023-04-15T00:00:25;7.20;99.80
3262;DHT22;1643;47.746;9.000;2023-04-15T00:02:50;7.10;99.80
3262;DHT22;1643;47.746;9.000;2023-04-15T00:05:17;7.10;99.80
3262;DHT22;1643;47.746;9.000;2023-04-15T00:07:42;7.10;99.80
3262;DHT22;1643;47.746;9.000;2023-04-15T00:10:09;7.20;99.80
3262;DHT22;1643;47.746;9.000;2023-04-15T00:12:35;7.10;99.70
3262;DHT22;1643;47.746;9.000;2023-04-15T00:15:01;7.10;99.70
3262;DHT22;1643;47.746;9.000;2023-04-15T00:17:26;7.10;99.70
3262;DHT22;1643;47.746;9.000;2023-04-15T00:19:52;7.00;99.60
3262;DHT22;1643;47.746;9.000;2023-04-15T00:22:18;7.00;99.70
3262;DHT22;1643;47.746;9.000;2023-04-15T00:24:44;7.10;99.80
3262;DHT22;1643;47.746;9.000;2023-04-15T00:27:10;7.10;99.70
3262;DHT22;1643;47.746;9.000;2023-04-15T00:29:35;7.00;99.80
3262;DHT22;1643;47.746;9.000;2023-04-15T00:32:01;7.00;99.90
3262;DHT22;1643;47.746;9.000;2023-04-15T00:34:27;6.90;99.90
3262;DHT22;1643;47.746;9.000;2023-04-15T00:36:53;6.90;99.90
3262;DHT22;1643;47.746;9.000;2023-04-15T00:39:19;6.90;99.90
3262;DHT22;1643;47.746;9.000;2023-04-15T00:41:45;7.00;99.90
3262;DHT22;1643;47.746;9.000;2023-04-15T00:44:10;7.00;99.90
3262;DHT22;1643;47.746;9.000;2023-04-15T00:46:37;7.00;99.90
3262;DHT22;1643;47.746;9.000;2023-04-15T00:49:04;7.00;99.90
3262;DHT22;1643;47.746;9.000;2023-04-15T00:51:31;6.90;99.90
3262;DHT22;1643;47.746;9.000;2023-04-15T00:54:01;6.90;99.90
3262;DHT22;1643;47.746;9.000;2023-04-15T00:56:28;6.90;99.90
3262;DHT22;1643;47.746;9.000;2023-04-15T00:58:53;6.90;99.90
3262;DHT22;1643;47.746;9.000;2023-04-15T01:01:24;6.90;99.90
3262;DHT22;1643;47.746;9.000;2023-04-15T01:03:50;6.80;99.90
3262;DHT22;1643;47.746;9.000;2023-04-15T01:06:17;6.80;99.90
3262;DHT22;1643;47.746;9.000;2023-04-15T01:08:43;6.70;99.90
3262;DHT22;1643;47.746;9.000;2023-04-15T01:11:09;6.70;99.90
3262;DHT22;1643;47.746;9.000;2023-04-15T01:13:36;6.70;99.90
3262;DHT22;1643;47.746;9.000;2023-04-15T01:16:02;6.70;99.90
3262;DHT22;1643;47.746;9.000;2023-04-15T01:18:29;6.70;99.90
3262;DHT22;1643;47.746;9.000;2023-04-15T01:20:55;6.60;99.90
3262;DHT22;1643;47.746;9.000;2023-04-15T01:23:21;6.60;99.90
3262;DHT22;1643;47.746;9.000;2023-04-15T01:25:48;6.50;99.90
3262;DHT22;1643;47.746;9.000;2023-04-15T01:28:14;6.60;99.90
3262;DHT22;1643;47.746;9.000;2023-04-15T01:30:40;6.50;99.90
3262;DHT22;1643;47.746;9.000;2023-04-15T01:33:06;6.50;99.90
3262;DHT22;1643;47.746;9.000;2023-04-15T01:35:32;6.30;99.90
3262;DHT22;1643;47.746;9.000;2023-04-15T01:38:08;6.40;99.90
3262;DHT22;1643;47.746;9.000;2023-04-15T01:40:34;6.40;99.90
3262;DHT22;1643;47.746;9.000;2023-04-15T01:43:01;6.30;99.90
3262;DHT22;1643;47.746;9.000;2023-04-15T01:45:27;6.30;99.90
3262;DHT22;1643;47.746;9.000;2023-04-15T01:47:53;6.10;99.90
3262;DHT22;1643;47.746;9.000;2023-04-15T01:50:19;6.10;99.90
3262;DHT22;1643;47.746;9.000;2023-04-15T01:52:45;6.10;99.90
3262;DHT22;1643;47.746;9.000;2023-04-15T01:55:14;6.10;99.90
3262;DHT22;1643;47.746;9.000;2023-04-15T01:57:39;6.10;99.90
3262;DHT22;1643;47.746;9.000;2023-04-15T02:00:06;6.10;99.90
3262;DHT22;1643;47.746;9.000;2023-04-15T02:02:34;6.10;99.90
3262;DHT22;1643;47.746;9.000;2023-04-15T02:05:00;6.10;99.90
3262;DHT22;1643;47.746;9.000;2023-04-15T02:07:26;6.10;99.90
3262;DHT22;1643;47.746;9.000;2023-04-15T02:09:53;6.10;99.90
3262;DHT22;1643;47.746;9.000;2023-04-15T02:12:18;6.00;99.90
3262;DHT22;1643;47.746;9.000;2023-04-15T02:14:44;6.10;99.90
3262;DHT22;1643;47.746;9.000;2023-04-15T02:17:10;6.10;99.90
3262;DHT22;1643;47.746;9.000;2023-04-15T02:19:36;6.10;99.90
3262;DHT22;1643;47.746;9.000;2023-04-15T02:22:01;6.10;99.90
3262;DHT22;1643;47.746;9.000;2023-04-15T02:24:29;6.10;99.90
3262;DHT22;1643;47.746;9.000;2023-04-15T02:26:55;6.10;99.90
3262;DHT22;1643;47.746;9.000;2023-04-15T02:29:21;6.10;99.90
3262;DHT22;1643;47.746;9.000;2023-04-15T02:31:48;6.10;99.90
3262;DHT22;1643;47.746;9.000;2023-04-15T02:34:13;6.00;99.90
3262;DHT22;1643;47.746;9.000;2023-04-15T02:36:39;6.00;99.90
3262;DHT22;1643;47.746;9.000;2023-04-15T02:39:05;6.00;99.90
3262;DHT22;1643;47.746;9.000;2023-04-15T02:41:31;5.90;99.90
3262;DHT22;1643;47.746;9.000;2023-04-15T02:43:56;5.90;99.90
3262;DHT22;1643;47.746;9.000;2023-04-15T02:46:22;5.90;99.90
3262;DHT22;1643;47.746;9.000;2023-04-15T02:48:49;5.90;99.90
3262;DHT22;1643;47.746;9.000;2023-04-15T02:51:16;5.90;99.90
3262;DHT22;1643;47.746;9.000;2023-04-15T02:53:44;5.90;99.90
3262;DHT22;1643;47.746;9.000;2023-04-15T02:56:10;5.80;99.90
3262;DHT22;1643;47.746;9.000;2023-04-15T02:58:36;5.80;99.90
3262;DHT22;1643;47.746;9.000;2023-04-15T03:01:02;5.80;99.90
3262;DHT22;1643;47.746;9.000;2023-04-15T03:03:27;5.80;99.90
3262;DHT22;1643;47.746;9.000;2023-04-15T03:05:53;5.80;99.90
3262;DHT22;1643;47.746;9.000;2023-04-15T03:08:18;5.80;99.90
3262;DHT22;1643;47.746;9.000;2023-04-15T03:10:45;5.70;99.90
3262;DHT22;1643;47.746;9.000;2023-04-15T03:13:12;5.70;99.90
3262;DHT22;1643;47.746;9.000;2023-04-15T03:15:37;5.70;99.90
3262;DHT22;1643;47.746;9.000;2023-04-15T03:18:03;5.70;99.90
3262;DHT22;1643;47.746;9.000;2023-04-15T03:20:28;5.70;99.90
3262;DHT22;1643;47.746;9.000;2023-04-15T03:22:54;5.60;99.90
3262;DHT22;1643;47.746;9.000;2023-04-15T03:25:20;5.60;99.90
3262;DHT22;1643;47.746;9.000;2023-04-15T03:27:46;5.50;99.90
3262;DHT22;1643;47.746;9.000;2023-04-15T03:30:11;5.40;99.90
3262;DHT22;1643;47.746;9.000;2023-04-15T03:32:38;5.40;99.90
3262;DHT22;1643;47.746;9.000;2023-04-15T03:35:03;5.30;99.90
3262;DHT22;1643;47.746;9.000;2023-04-15T03:37:29;5.30;99.90
3262;DHT22;1643;47.746;9.000;2023-04-15T03:39:55;5.30;99.90
3262;DHT22;1643;47.746;9.000;2023-04-15T03:42:20;5.30;99.90
3262;DHT22;1643;47.746;9.000;2023-04-15T03:44:46;5.30;99.90
3262;DHT22;1643;47.746;9.000;2023-04-15T03:47:12;5.40;99.90
3262;DHT22;1643;47.746;9.000;2023-04-15T03:49:37;5.40;99.90
3262;DHT22;1643;47.746;9.000;2023-04-15T03:52:03;5.50;99.90
3262;DHT22;1643;47.746;9.000;2023-04-15T03:54:28;5.40;99.90
3262;DHT22;1643;47.746;9.000;2023-04-15T03:56:54;5.40;99.90
3262;DHT22;1643;47.746;9.000;2023-04-15T03:59:21;5.30;99.90
3262;DHT22;1643;47.746;9.000;2023-04-15T04:01:46;5.30;99.90
3262;DHT22;1643;47.746;9.000;2023-04-15T04:04:12;5.30;99.90
3262;DHT22;1643;47.746;9.000;2023-04-15T04:06:38;5.30;99.90
3262;DHT22;1643;47.746;9.000;2023-04-15T04:09:03;5.10;99.90
3262;DHT22;1643;47.746;9.000;2023-04-15T04:11:29;5.10;99.90
3262;DHT22;1643;47.746;9.000;2023-04-15T04:13:56;5.00;99.90
3262;DHT22;1643;47.746;9.000;2023-04-15T04:16:21;5.10;99.90
3262;DHT22;1643;47.746;9.000;2023-04-15T04:18:47;5.20;99.90
3262;DHT22;1643;47.746;9.000;2023-04-15T04:21:12;5.20;99.90
3262;DHT22;1643;47.746;9.000;2023-04-15T04:23:38;5.30;99.90
3262;DHT22;1643;47.746;9.000;2023-04-15T04:26:04;5.30;99.90
3262;DHT22;1643;47.746;9.000;2023-04-15T04:28:29;5.30;99.90
3262;DHT22;1643;47.746;9.000;2023-04-15T04:30:55;5.30;99.90
3262;DHT22;1643;47.746;9.000;2023-04-15T04:33:21;5.30;99.90
3262;DHT22;1643;47.746;9.000;2023-04-15T04:35:47;5.20;99.90
3262;DHT22;1643;47.746;9.000;2023-04-15T04:38:12;5.20;99.90
3262;DHT22;1643;47.746;9.000;2023-04-15T04:40:38;5.20;99.90
3262;DHT22;1643;47.746;9.000;2023-04-15T04:43:04;5.30;99.90
3262;DHT22;1643;47.746;9.000;2023-04-15T04:45:29;5.40;99.90
3262;DHT22;1643;47.746;9.000;2023-04-15T04:47:55;5.40;99.90
3262;DHT22;1643;47.746;9.000;2023-04-15T04:50:21;5.40;99.90
3262;DHT22;1643;47.746;9.000;2023-04-15T04:52:46;5.40;99.90
3262;DHT22;1643;47.746;9.000;2023-04-15T04:55:12;5.40;99.90
3262;DHT22;1643;47.746;9.000;2023-04-15T04:57:38;5.40;99.90
3262;DHT22;1643;47.746;9.000;2023-04-15T05:00:07;5.50;99.90
3262;DHT22;1643;47.746;9.000;2023-04-15T05:02:33;5.50;99.90
3262;DHT22;1643;47.746;9.000;2023-04-15T05:04:59;5.50;99.90
3262;DHT22;1643;47.746;9.000;2023-04-15T05:07:25;5.50;99.90
3262;DHT22;1643;47.746;9.000;2023-04-15T05:09:51;5.60;99.90
3262;DHT22;1643;47.746;9.000;2023-04-15T05:12:17;5.60;99.90
3262;DHT22;1643;47.746;9.000;2023-04-15T05:14:43;5.70;99.90
3262;DHT22;1643;47.746;9.000;2023-04-15T05:17:09;5.70;99.90
3262;DHT22;1643;47.746;9.000;2023-04-15T05:19:35;5.80;99.90
3262;DHT22;1643;47.746;9.000;2023-04-15T05:22:01;5.80;99.90
3262;DHT22;1643;47.746;9.000;2023-04-15T05:24:26;5.70;99.90
3262;DHT22;1643;47.746;9.000;2023-04-15T05:26:52;5.60;99.90
3262;DHT22;1643;47.746;9.000;2023-04-15T05:29:18;5.70;99.90
3262;DHT22;1643;47.746;9.000;2023-04-15T05:31:43;5.80;99.90
3262;DHT22;1643;47.746;9.000;2023-04-15T05:34:09;5.90;99.90
3262;DHT22;1643;47.746;9.000;2023-04-15T05:36:36;6.00;99.90
3262;DHT22;1643;47.746;9.000;2023-04-15T05:39:02;6.00;99.90
3262;DHT22;1643;47.746;9.000;2023-04-15T05:41:28;6.00;99.90
3262;DHT22;1643;47.746;9.000;2023-04-15T05:43:54;6.00;99.90
3262;DHT22;1643;47.746;9.000;2023-04-15T05:46:20;6.10;99.90
3262;DHT22;1643;47.746;9.000;2023-04-15T05:48:46;6.00;99.90
3262;DHT22;1643;47.746;9.000;2023-04-15T05:51:12;6.10;99.90
3262;DHT22;1643;47.746;9.000;2023-04-15T05:53:38;6.10;99.90
3262;DHT22;1643;47.746;9.000;2023-04-15T05:56:05;6.20;99.90
3262;DHT22;1643;47.746;9.000;2023-04-15T05:58:31;6.20;99.90
3262;DHT22;1643;47.746;9.000;2023-04-15T06:00:57;6.20;99.90
3262;DHT22;1643;47.746;9.000;2023-04-15T06:03:22;6.20;99.90
3262;DHT22;1643;47.746;9.000;2023-04-15T06:05:48;6.20;99.90
3262;DHT22;1643;47.746;9.000;2023-04-15T06:08:14;6.30;99.90
3262;DHT22;1643;47.746;9.000;2023-04-15T06:10:40;6.30;99.90
3262;DHT22;1643;47.746;9.000;2023-04-15T06:13:06;6.30;99.90
3262;DHT22;1643;47.746;9.000;2023-04-15T06:15:32;6.30;99.90
3262;DHT22;1643;47.746;9.000;2023-04-15T06:17:58;6.30;99.90
3262;DHT22;1643;47.746;9.000;2023-04-15T06:20:23;6.30;99.90
3262;DHT22;1643;47.746;9.000;2023-04-15T06:22:49;6.20;99.90
3262;DHT22;1643;47.746;9.000;2023-04-15T06:25:15;6.20;99.90
3262;DHT22;1643;47.746;9.000;2023-04-15T06:27:41;6.30;99.90
3262;DHT22;1643;47.746;9.000;2023-04-15T06:30:07;6.40;99.90
3262;DHT22;1643;47.746;9.000;2023-04-15T06:32:33;6.50;99.90
3262;DHT22;1643;47.746;9.000;2023-04-15T06:34:59;6.60;99.90
3262;DHT22;1643;47.746;9.000;2023-04-15T06:37:24;6.70;99.90
3262;DHT22;1643;47.746;9.000;2023-04-15T06:39:50;6.70;99.90
3262;DHT22;1643;47.746;9.000;2023-04-15T06:42:16;6.80;99.90
3262;DHT22;1643;47.746;9.000;2023-04-15T06:44:41;6.80;99.90
3262;DHT22;1643;47.746;9.000;2023-04-15T06:47:07;6.90;99.90
3262;DHT22;1643;47.746;9.000;2023-04-15T06:49:33;6.90;99.90
3262;DHT22;1643;47.746;9.000;2023-04-15T06:51:59;7.00;99.90
3262;DHT22;1643;47.746;9.000;2023-04-15T06:54:25;7.10;99.90
3262;DHT22;1643;47.746;9.000;2023-04-15T06:56:52;7.10;99.90
3262;DHT22;1643;47.746;9.000;2023-04-15T06:59:17;7.10;99.90
3262;DHT22;1643;47.746;9.000;2023-04-15T07:01:43;7.10;99.90
3262;DHT22;1643;47.746;9.000;2023-04-15T07:04:09;7.10;99.90
3262;DHT22;1643;47.746;9.000;2023-04-15T07:06:35;7.20;99.90
3262;DHT22;1643;47.746;9.000;2023-04-15T07:09:01;7.30;99.90
3262;DHT22;1643;47.746;9.000;2023-04-15T07:11:27;7.40;99.90
3262;DHT22;1643;47.746;9.000;2023-04-15T07:13:53;7.50;99.90
3262;DHT22;1643;47.746;9.000;2023-04-15T07:16:18;7.50;99.90
3262;DHT22;1643;47.746;9.000;2023-04-15T07:18:44;7.50;99.90
3262;DHT22;1643;47.746;9.000;2023-04-15T07:21:10;7.60;99.90
3262;DHT22;1643;47.746;9.000;2023-04-15T07:23:36;7.70;99.90
3262;DHT22;1643;47.746;9.000;2023-04-15T07:26:02;7.90;99.90
3262;DHT22;1643;47.746;9.000;2023-04-15T07:28:28;7.90;99.90
3262;DHT22;1643;47.746;9.000;2023-04-15T07:30:54;7.90;99.90
3262;DHT22;1643;47.746;9.000;2023-04-15T07:33:21;8.00;99.90
3262;DHT22;1643;47.746;9.000;2023-04-15T07:35:47;8.00;99.90
3262;DHT22;1643;47.746;9.000;2023-04-15T07:38:13;8.10;99.90
3262;DHT22;1643;47.746;9.000;2023-04-15T07:40:39;8.20;99.90
3262;DHT22;1643;47.746;9.000;2023-04-15T07:43:05;8.10;99.90
3262;DHT22;1643;47.746;9.000;2023-04-15T07:45:31;8.10;99.90
3262;DHT22;1643;47.746;9.000;2023-04-15T07:47:57;8.10;99.90
3262;DHT22;1643;47.746;9.000;2023-04-15T07:50:23;8.20;99.90
3262;DHT22;1643;47.746;9.000;2023-04-15T07:52:49;8.20;99.90
3262;DHT22;1643;47.746;9.000;2023-04-15T07:55:16;8.30;99.90
3262;DHT22;1643;47.746;9.000;2023-04-15T07:57:44;8.40;99.90
3262;DHT22;1643;47.746;9.000;2023-04-15T08:00:10;8.40;99.90
3262;DHT22;1643;47.746;9.000;2023-04-15T08:02:36;8.40;99.90
3262;DHT22;1643;47.746;9.000;2023-04-15T08:05:02;8.40;99.90
3262;DHT22;1643;47.746;9.000;2023-04-15T08:07:28;8.40;99.90
3262;DHT22;1643;47.746;9.000;2023-04-15T08:09:54;8.40;99.90
3262;DHT22;1643;47.746;9.000;2023-04-15T08:12:20;8.50;99.90
3262;DHT22;1643;47.746;9.000;2023-04-15T08:14:47;8.50;99.90
3262;DHT22;1643;47.746;9.000;2023-04-15T08:17:12;8.60;99.90
3262;DHT22;1643;47.746;9.000;2023-04-15T08:19:39;8.60;99.90
3262;DHT22;1643;47.746;9.000;2023-04-15T08:22:05;8.70;99.90
3262;DHT22;1643;47.746;9.000;2023-04-15T08:24:30;8.70;99.90
3262;DHT22;1643;47.746;9.000;2023-04-15T08:26:56;8.90;99.90
3262;DHT22;1643;47.746;9.000;2023-04-15T08:29:22;8.90;99.90
3262;DHT22;1643;47.746;9.000;2023-04-15T08:31:48;8.90;99.90
3262;DHT22;1643;47.746;9.000;2023-04-15T08:34:14;9.00;99.90
3262;DHT22;1643;47.746;9.000;2023-04-15T08:36:41;9.00;99.90
3262;DHT22;1643;47.746;9.000;2023-04-15T08:39:07;8.90;99.90
3262;DHT22;1643;47.746;9.000;2023-04-15T08:41:42;8.90;99.90
3262;DHT22;1643;47.746;9.000;2023-04-15T08:44:10;8.90;99.90
3262;DHT22;1643;47.746;9.000;2023-04-15T08:46:37;9.00;99.90
3262;DHT22;1643;47.746;9.000;2023-04-15T08:49:04;9.00;99.90
3262;DHT22;1643;47.746;9.000;2023-04-15T08:51:33;9.10;99.90
3262;DHT22;1643;47.746;9.000;2023-04-15T08:54:01;9.10;99.90
3262;DHT22;1643;47.746;9.000;2023-04-15T08:56:27;9.10;99.90
3262;DHT22;1643;47.746;9.000;2023-04-15T08:58:56;9.20;99.90
3262;DHT22;1643;47.746;9.000;2023-04-15T09:01:22;9.30;99.90
3262;DHT22;1643;47.746;9.000;2023-04-15T09:03:48;9.20;99.90
3262;DHT22;1643;47.746;9.000;2023-04-15T09:06:16;9.20;99.90
3262;DHT22;1643;47.746;9.000;2023-04-15T09:08:41;9.40;99.90
3262;DHT22;1643;47.746;9.000;2023-04-15T09:11:07;9.50;99.90
3262;DHT22;1643;47.746;9.000;2023-04-15T09:13:32;9.60;99.90
3262;DHT22;1643;47.746;9.000;2023-04-15T09:16:01;9.60;99.90
3262;DHT22;1643;47.746;9.000;2023-04-15T09:18:33;9.80;99.90
3262;DHT22;1643;47.746;9.000;2023-04-15T09:21:07;10.00;99.90
3262;DHT22;1643;47.746;9.000;2023-04-15T09:23:34;10.10;99.90
3262;DHT22;1643;47.746;9.000;2023-04-15T09:26:01;10.30;99.90
3262;DHT22;1643;47.746;9.000;2023-04-15T09:28:27;10.20;99.90
3262;DHT22;1643;47.746;9.000;2023-04-15T09:30:59;10.20;99.90
3262;DHT22;1643;47.746;9.000;2023-04-15T09:33:26;10.20;99.90
3262;DHT22;1643;47.746;9.000;2023-04-15T09:36:04;10.10;99.90
3262;DHT22;1643;47.746;9.000;2023-04-15T09:38:31;10.10;99.90
3262;DHT22;1643;47.746;9.000;2023-04-15T09:40:57;10.10;99.90
3262;DHT22;1643;47.746;9.000;2023-04-15T09:43:39;10.20;99.90
3262;DHT22;1643;47.746;9.000;2023-04-15T09:46:05;10.20;99.90
3262;DHT22;1643;47.746;9.000;2023-04-15T09:48:31;10.20;99.90
3262;DHT22;1643;47.746;9.000;2023-04-15T09:50:57;10.10;99.90
3262;DHT22;1643;47.746;9.000;2023-04-15T09:53:24;10.10;99.90
3262;DHT22;1643;47.746;9.000;2023-04-15T09:55:55;10.20;99.90
3262;DHT22;1643;47.746;9.000;2023-04-15T10:00:49;10.30;99.90
3262;DHT22;1643;47.746;9.000;2023-04-15T10:03:25;10.30;99.90
3262;DHT22;1643;47.746;9.000;2023-04-15T10:05:54;10.40;99.90
3262;DHT22;1643;47.746;9.000;2023-04-15T10:08:23;10.40;99.90
3262;DHT22;1643;47.746;9.000;2023-04-15T10:10:49;10.50;99.90
3262;DHT22;1643;47.746;9.000;2023-04-15T10:13:21;10.50;99.90
3262;DHT22;1643;47.746;9.000;2023-04-15T10:15:59;10.70;99.90
3262;DHT22;1643;47.746;9.000;2023-04-15T10:18:26;10.70;99.70
3262;DHT22;1643;47.746;9.000;2023-04-15T10:20:53;10.70;99.70
3262;DHT22;1643;47.746;9.000;2023-04-15T10:23:21;10.70;99.60
3262;DHT22;1643;47.746;9.000;2023-04-15T10:25:48;10.80;99.60
3262;DHT22;1643;47.746;9.000;2023-04-15T10:28:15;10.80;99.60
3262;DHT22;1643;47.746;9.000;2023-04-15T10:30:42;10.80;99.60
3262;DHT22;1643;47.746;9.000;2023-04-15T10:33:08;10.90;99.50
3262;DHT22;1643;47.746;9.000;2023-04-15T10:35:36;10.90;99.60
3262;DHT22;1643;47.746;9.000;2023-04-15T10:38:01;11.10;99.50
3262;DHT22;1643;47.746;9.000;2023-04-15T10:40:28;11.00;99.40
3262;DHT22;1643;47.746;9.000;2023-04-15T10:42:58;11.00;99.50
3262;DHT22;1643;47.746;9.000;2023-04-15T10:45:30;11.10;99.70
3262;DHT22;1643;47.746;9.000;2023-04-15T10:47:57;11.40;99.60
3262;DHT22;1643;47.746;9.000;2023-04-15T10:53:34;11.50;99.50
3262;DHT22;1643;47.746;9.000;2023-04-15T10:56:03;11.60;99.50
3262;DHT22;1643;47.746;9.000;2023-04-15T10:58:40;11.60;99.40
3262;DHT22;1643;47.746;9.000;2023-04-15T11:01:06;11.70;99.10
3262;DHT22;1643;47.746;9.000;2023-04-15T11:03:39;11.70;99.00
3262;DHT22;1643;47.746;9.000;2023-04-15T11:06:07;11.70;99.00
3262;DHT22;1643;47.746;9.000;2023-04-15T11:08:53;11.60;99.10
3262;DHT22;1643;47.746;9.000;2023-04-15T11:11:20;11.70;99.20
3262;DHT22;1643;47.746;9.000;2023-04-15T11:13:50;11.70;99.10
3262;DHT22;1643;47.746;9.000;2023-04-15T11:16:17;11.80;99.00
3262;DHT22;1643;47.746;9.000;2023-04-15T11:18:52;11.90;98.70
3262;DHT22;1643;47.746;9.000;2023-04-15T11:21:19;12.10;98.70
3262;DHT22;1643;47.746;9.000;2023-04-15T11:23:48;12.20;98.50
3262;DHT22;1643;47.746;9.000;2023-04-15T11:26:15;12.20;98.30
3262;DHT22;1643;47.746;9.000;2023-04-15T11:28:42;12.30;98.10
3262;DHT22;1643;47.746;9.000;2023-04-15T11:31:16;12.30;97.90
3262;DHT22;1643;47.746;9.000;2023-04-15T11:33:53;12.30;97.70
3262;DHT22;1643;47.746;9.000;2023-04-15T11:36:19;12.10;97.60
3262;DHT22;1643;47.746;9.000;2023-04-15T11:38:46;12.00;97.70
3262;DHT22;1643;47.746;9.000;2023-04-15T11:41:12;12.20;97.60
3262;DHT22;1643;47.746;9.000;2023-04-15T11:43:37;12.20;97.50
3262;DHT22;1643;47.746;9.000;2023-04-15T11:46:03;12.10;97.40
3262;DHT22;1643;47.746;9.000;2023-04-15T11:48:31;12.10;97.50
3262;DHT22;1643;47.746;9.000;2023-04-15T11:50:59;12.20;97.30
3262;DHT22;1643;47.746;9.000;2023-04-15T11:53:43;12.30;96.80
3262;DHT22;1643;47.746;9.000;2023-04-15T11:56:11;12.20;96.70
3262;DHT22;1643;47.746;9.000;2023-04-15T11:58:41;12.20;96.50
3262;DHT22;1643;47.746;9.000;2023-04-15T12:01:07;12.30;96.40
3262;DHT22;1643;47.746;9.000;2023-04-15T12:03:41;12.30;96.20
3262;DHT22;1643;47.746;9.000;2023-04-15T12:08:50;12.20;95.90
3262;DHT22;1643;47.746;9.000;2023-04-15T12:16:28;12.20;95.30
3262;DHT22;1643;47.746;9.000;2023-04-15T12:18:55;12.20;95.00
3262;DHT22;1643;47.746;9.000;2023-04-15T12:21:23;12.20;94.60
3262;DHT22;1643;47.746;9.000;2023-04-15T12:23:54;12.30;94.50
3262;DHT22;1643;47.746;9.000;2023-04-15T12:26:27;12.40;94.50
3262;DHT22;1643;47.746;9.000;2023-04-15T12:28:54;12.50;94.50
3262;DHT22;1643;47.746;9.000;2023-04-15T12:31:21;12.50;94.40
3262;DHT22;1643;47.746;9.000;2023-04-15T12:33:48;12.80;93.80
3262;DHT22;1643;47.746;9.000;2023-04-15T12:36:14;12.90;93.30
3262;DHT22;1643;47.746;9.000;2023-04-15T12:38:40;13.00;93.20
3262;DHT22;1643;47.746;9.000;2023-04-15T12:41:05;12.90;93.20
3262;DHT22;1643;47.746;9.000;2023-04-15T12:43:31;12.90;93.10
3262;DHT22;1643;47.746;9.000;2023-04-15T12:45:56;12.90;93.00
3262;DHT22;1643;47.746;9.000;2023-04-15T12:48:22;12.80;93.10
3262;DHT22;1643;47.746;9.000;2023-04-15T12:50:48;12.80;92.70
3262;DHT22;1643;47.746;9.000;2023-04-15T12:53:13;12.80;92.40
3262;DHT22;1643;47.746;9.000;2023-04-15T12:55:39;12.70;92.50
3262;DHT22;1643;47.746;9.000;2023-04-15T12:58:04;12.70;92.50
3262;DHT22;1643;47.746;9.000;2023-04-15T13:00:33;12.60;92.40
3262;DHT22;1643;47.746;9.000;2023-04-15T13:02:59;12.60;92.60
3262;DHT22;1643;47.746;9.000;2023-04-15T13:05:24;12.60;92.80
3262;DHT22;1643;47.746;9.000;2023-04-15T13:07:50;12.50;92.50
3262;DHT22;1643;47.746;9.000;2023-04-15T13:10:16;12.50;92.00
3262;DHT22;1643;47.746;9.000;2023-04-15T13:12:41;12.40;92.00
3262;DHT22;1643;47.746;9.000;2023-04-15T13:15:07;12.40;92.20
3262;DHT22;1643;47.746;9.000;2023-04-15T13:17:35;12.30;92.60
3262;DHT22;1643;47.746;9.000;2023-04-15T13:20:01;12.30;93.00
3262;DHT22;1643;47.746;9.000;2023-04-15T13:22:26;12.30;93.20
3262;DHT22;1643;47.746;9.000;2023-04-15T13:24:52;12.30;93.40
3262;DHT22;1643;47.746;9.000;2023-04-15T13:27:18;12.40;93.30
3262;DHT22;1643;47.746;9.000;2023-04-15T13:29:43;12.50;93.10
3262;DHT22;1643;47.746;9.000;2023-04-15T13:32:09;12.50;92.90
3262;DHT22;1643;47.746;9.000;2023-04-15T13:34:34;12.60;92.70
3262;DHT22;1643;47.746;9.000;2023-04-15T13:37:07;12.60;92.60
3262;DHT22;1643;47.746;9.000;2023-04-15T13:39:33;12.60;92.60
3262;DHT22;1643;47.746;9.000;2023-04-15T13:41:58;12.70;92.80
3262;DHT22;1643;47.746;9.000;2023-04-15T13:44:24;12.70;92.50
3262;DHT22;1643;47.746;9.000;2023-04-15T13:46:49;12.80;92.40
3262;DHT22;1643;47.746;9.000;2023-04-15T13:49:16;12.80;92.50
3262;DHT22;1643;47.746;9.000;2023-04-15T13:51:42;12.90;92.90
3262;DHT22;1643;47.746;9.000;2023-04-15T13:54:07;13.00;92.80
3262;DHT22;1643;47.746;9.000;2023-04-15T13:56:33;13.00;92.70
3262;DHT22;1643;47.746;9.000;2023-04-15T13:58:59;13.00;92.80
3262;DHT22;1643;47.746;9.000;2023-04-15T14:01:27;12.90;92.90
3262;DHT22;1643;47.746;9.000;2023-04-15T14:03:52;13.00;93.00
3262;DHT22;1643;47.746;9.000;2023-04-15T14:06:18;13.00;92.80
3262;DHT22;1643;47.746;9.000;2023-04-15T14:08:44;13.00;92.90
3262;DHT22;1643;47.746;9.000;2023-04-15T14:11:10;13.10;92.70
3262;DHT22;1643;47.746;9.000;2023-04-15T14:13:35;13.20;92.50
3262;DHT22;1643;47.746;9.000;2023-04-15T14:16:01;13.10;92.30
3262;DHT22;1643;47.746;9.000;2023-04-15T14:18:27;13.10;92.00
3262;DHT22;1643;47.746;9.000;2023-04-15T14:20:52;13.10;92.50
3262;DHT22;1643;47.746;9.000;2023-04-15T14:23:18;13.00;92.50
3262;DHT22;1643;47.746;9.000;2023-04-15T14:25:44;13.00;92.70
3262;DHT22;1643;47.746;9.000;2023-04-15T14:28:09;13.10;92.50
3262;DHT22;1643;47.746;9.000;2023-04-15T14:30:35;13.10;92.60
3262;DHT22;1643;47.746;9.000;2023-04-15T14:33:01;13.10;93.20
3262;DHT22;1643;47.746;9.000;2023-04-15T14:35:27;13.00;93.60
3262;DHT22;1643;47.746;9.000;2023-04-15T14:37:53;13.00;93.80
3262;DHT22;1643;47.746;9.000;2023-04-15T14:40:19;12.90;94.10
3262;DHT22;1643;47.746;9.000;2023-04-15T14:42:45;12.90;93.60
3262;DHT22;1643;47.746;9.000;2023-04-15T14:45:11;12.90;93.40
3262;DHT22;1643;47.746;9.000;2023-04-15T14:47:36;12.90;93.50
3262;DHT22;1643;47.746;9.000;2023-04-15T14:50:02;12.80;93.70
3262;DHT22;1643;47.746;9.000;2023-04-15T14:52:30;12.90;94.50
3262;DHT22;1643;47.746;9.000;2023-04-15T14:54:57;12.90;93.90
3262;DHT22;1643;47.746;9.000;2023-04-15T14:57:23;12.80;94.20
3262;DHT22;1643;47.746;9.000;2023-04-15T14:59:48;12.60;95.00
3262;DHT22;1643;47.746;9.000;2023-04-15T15:02:14;12.70;95.40
3262;DHT22;1643;47.746;9.000;2023-04-15T15:04:40;12.70;95.70
3262;DHT22;1643;47.746;9.000;2023-04-15T15:07:06;12.70;96.10
3262;DHT22;1643;47.746;9.000;2023-04-15T15:09:31;12.60;96.50
3262;DHT22;1643;47.746;9.000;2023-04-15T15:11:57;12.60;96.80
3262;DHT22;1643;47.746;9.000;2023-04-15T15:14:22;12.50;97.20
3262;DHT22;1643;47.746;9.000;2023-04-15T15:16:48;12.50;97.50
3262;DHT22;1643;47.746;9.000;2023-04-15T15:19:14;12.40;98.00
3262;DHT22;1643;47.746;9.000;2023-04-15T15:21:39;12.40;98.20
3262;DHT22;1643;47.746;9.000;2023-04-15T15:24:05;12.40;98.50
3262;DHT22;1643;47.746;9.000;2023-04-15T15:26:30;12.40;99.00
3262;DHT22;1643;47.746;9.000;2023-04-15T15:28:56;12.40;99.40
3262;DHT22;1643;47.746;9.000;2023-04-15T15:31:22;12.30;99.40
3262;DHT22;1643;47.746;9.000;2023-04-15T15:33:48;12.30;99.50
3262;DHT22;1643;47.746;9.000;2023-04-15T15:36:13;12.30;99.80
3262;DHT22;1643;47.746;9.000;2023-04-15T15:38:40;12.30;99.90
3262;DHT22;1643;47.746;9.000;2023-04-15T15:41:06;12.20;99.70
3262;DHT22;1643;47.746;9.000;2023-04-15T15:43:31;12.10;99.50
3262;DHT22;1643;47.746;9.000;2023-04-15T15:45:57;12.00;99.80
3262;DHT22;1643;47.746;9.000;2023-04-15T15:48:24;11.90;99.90
3262;DHT22;1643;47.746;9.000;2023-04-15T15:50:51;11.90;99.80
3262;DHT22;1643;47.746;9.000;2023-04-15T15:53:17;11.80;99.90
3262;DHT22;1643;47.746;9.000;2023-04-15T15:55:46;11.70;99.90
3262;DHT22;1643;47.746;9.000;2023-04-15T15:58:12;11.80;99.90
3262;DHT22;1643;47.746;9.000;2023-04-15T16:00:38;11.70;99.90
3262;DHT22;1643;47.746;9.000;2023-04-15T16:03:04;11.60;99.90
3262;DHT22;1643;47.746;9.000;2023-04-15T16:05:29;11.70;99.70
3262;DHT22;1643;47.746;9.000;2023-04-15T16:07:55;11.60;99.90
3262;DHT22;1643;47.746;9.000;2023-04-15T16:10:21;11.60;99.90
3262;DHT22;1643;47.746;9.000;2023-04-15T16:12:46;11.70;99.80
3262;DHT22;1643;47.746;9.000;2023-04-15T16:15:12;11.60;99.90
3262;DHT22;1643;47.746;9.000;2023-04-15T16:17:38;11.50;99.90
3262;DHT22;1643;47.746;9.000;2023-04-15T16:20:04;11.50;99.90